Time,TemperatureF,DewpointF,PressureIn,WindDirection,WindDirectionDegrees,WindSpeedMPH,WindSpeedGustMPH,Humidity,HourlyPrecipIn,Conditions,Clouds,dailyrainin,SoftwareType,DateUTC
2015-07-07 00:00:00,71.3,60.6,29.50,SSE,150,1.6,4.2,69,0.00,,SKC,0.00,VWS V15.00,2015-07-07 04:00:00,
2015-07-07 00:06:00,71.2,60.6,29.50,ESE,121,0.0,2.1,69,0.00,,SKC,0.00,VWS V15.00,2015-07-07 04:06:00,
2015-07-07 00:12:00,71.2,60.6,29.50,SE,138,0.0,0.0,69,0.00,,SKC,0.00,VWS V15.00,2015-07-07 04:12:00,
2015-07-07 00:17:00,71.1,60.7,29.50,South,176,1.5,2.6,70,0.00,,SKC,0.00,VWS V15.00,2015-07-07 04:17:00,
2015-07-07 00:23:00,70.9,60.6,29.50,SSE,153,0.0,0.0,70,0.00,,SKC,0.00,VWS V15.00,2015-07-07 04:23:00,
2015-07-07 00:29:00,71.0,60.8,29.50,SE,141,0.0,0.0,70,0.00,,SKC,0.00,VWS V15.00,2015-07-07 04:29:00,
2015-07-07 00:34:00,70.9,60.8,29.49,ESE,117,0.0,0.0,70,0.00,,SKC,0.00,VWS V15.00,2015-07-07 04:34:00,
2015-07-07 00:39:00,70.8,60.7,29.49,ESE,117,0.0,0.0,70,0.00,,SKC,0.00,VWS V15.00,2015-07-07 04:39:00,
2015-07-07 00:44:00,71.0,60.9,29.49,South,169,2.3,2.3,70,0.00,,SKC,0.00,VWS V15.00,2015-07-07 04:44:00,
2015-07-07 00:49:00,71.0,61.0,29.49,South,176,3.7,4.9,71,0.00,,SKC,0.00,VWS V15.00,2015-07-07 04:49:00,
2015-07-07 00:54:00,71.1,61.0,29.48,South,174,1.5,3.0,70,0.00,,SKC,0.00,VWS V15.00,2015-07-07 04:54:00,
2015-07-07 00:59:00,71.1,61.0,29.48,SSW,194,3.2,3.2,70,0.00,,SKC,0.00,VWS V15.00,2015-07-07 04:59:00,
2015-07-07 01:04:00,71.3,61.2,29.48,South,174,3.0,4.2,70,0.00,,SKC,0.00,VWS V15.00,2015-07-07 05:04:00,
2015-07-07 01:09:00,71.5,61.4,29.48,SSW,198,3.1,4.6,70,0.00,,SKC,0.00,VWS V15.00,2015-07-07 05:09:00,
2015-07-07 01:14:00,71.5,61.5,29.48,South,187,1.6,3.6,71,0.00,,SKC,0.00,VWS V15.00,2015-07-07 05:14:00,
2015-07-07 01:19:00,71.5,61.5,29.48,SW,219,3.0,3.7,71,0.00,,SKC,0.00,VWS V15.00,2015-07-07 05:19:00,
2015-07-07 01:24:00,71.6,61.6,29.48,SSE,153,4.1,4.7,71,0.00,,SKC,0.00,VWS V15.00,2015-07-07 05:24:00,
2015-07-07 01:29:00,71.5,61.6,29.48,South,179,1.7,2.9,71,0.00,,SKC,0.00,VWS V15.00,2015-07-07 05:29:00,
2015-07-07 01:34:00,71.7,61.9,29.48,South,172,3.3,3.5,71,0.00,,SKC,0.00,VWS V15.00,2015-07-07 05:34:00,
2015-07-07 01:39:00,71.7,62.0,29.48,SSW,197,3.7,4.4,71,0.00,,SKC,0.00,VWS V15.00,2015-07-07 05:39:00,
2015-07-07 01:44:00,71.5,61.9,29.48,SSW,193,2.2,4.9,72,0.00,,SKC,0.00,VWS V15.00,2015-07-07 05:44:00,
2015-07-07 01:49:00,71.6,62.1,29.47,South,184,4.9,7.0,72,0.00,,SKC,0.00,VWS V15.00,2015-07-07 05:49:00,
2015-07-07 01:59:00,71.8,62.2,29.47,South,176,3.5,3.5,72,0.00,,SKC,0.00,VWS V15.00,2015-07-07 05:59:00,
2015-07-07 02:04:00,71.9,62.3,29.47,South,190,2.8,5.2,72,0.00,,SKC,0.00,VWS V15.00,2015-07-07 06:04:00,
2015-07-07 02:09:00,72.0,62.4,29.47,SW,221,1.2,1.4,72,0.00,,SKC,0.00,VWS V15.00,2015-07-07 06:09:00,
2015-07-07 02:14:00,72.1,62.6,29.47,South,180,3.7,5.8,72,0.00,,SKC,0.00,VWS V15.00,2015-07-07 06:14:00,
2015-07-07 02:19:00,72.1,62.7,29.47,South,177,4.7,5.2,72,0.00,,SKC,0.00,VWS V15.00,2015-07-07 06:19:00,
2015-07-07 02:24:00,72.1,62.8,29.47,SSW,200,4.7,7.0,72,0.00,,SKC,0.00,VWS V15.00,2015-07-07 06:24:00,
2015-07-07 02:34:00,72.3,63.0,29.47,SSW,208,1.8,3.6,72,0.00,,SKC,0.00,VWS V15.00,2015-07-07 06:34:00,
2015-07-07 02:39:00,72.5,63.2,29.47,SSW,193,5.3,5.3,73,0.00,,SKC,0.00,VWS V15.00,2015-07-07 06:39:00,
2015-07-07 02:44:00,72.7,63.3,29.46,SW,231,2.4,5.5,72,0.00,,SKC,0.00,VWS V15.00,2015-07-07 06:44:00,
2015-07-07 02:49:00,72.6,63.3,29.46,SSW,205,8.1,8.1,72,0.00,,SKC,0.00,VWS V15.00,2015-07-07 06:49:00,
2015-07-07 02:54:00,72.7,63.4,29.46,SSE,167,4.2,4.4,73,0.00,,SKC,0.00,VWS V15.00,2015-07-07 06:54:00,
2015-07-07 02:59:00,72.7,63.4,29.46,SSW,197,2.8,3.2,73,0.00,,SKC,0.00,VWS V15.00,2015-07-07 06:59:00,
2015-07-07 03:04:00,72.8,63.6,29.47,SSW,193,1.4,2.0,73,0.00,,SKC,0.00,VWS V15.00,2015-07-07 07:04:00,
2015-07-07 03:09:00,72.7,63.6,29.47,SSW,194,5.2,6.6,73,0.00,,SKC,0.00,VWS V15.00,2015-07-07 07:09:00,
2015-07-07 03:14:00,72.9,63.7,29.47,South,183,3.9,3.9,73,0.00,,SKC,0.00,VWS V15.00,2015-07-07 07:14:00,
2015-07-07 03:19:00,73.0,63.8,29.47,SSW,204,1.6,2.9,73,0.00,,SKC,0.00,VWS V15.00,2015-07-07 07:19:00,
2015-07-07 03:24:00,72.7,63.6,29.47,SSW,212,1.9,3.2,73,0.00,,SKC,0.00,VWS V15.00,2015-07-07 07:24:00,
2015-07-07 03:30:00,72.9,63.8,29.47,SSW,195,7.1,7.1,73,0.00,,SKC,0.00,VWS V15.00,2015-07-07 07:30:00,
2015-07-07 03:35:00,73.0,63.8,29.47,SW,231,2.4,3.7,73,0.00,,SKC,0.00,VWS V15.00,2015-07-07 07:35:00,
2015-07-07 03:45:00,73.0,63.8,29.47,South,172,2.3,4.0,73,0.00,,SKC,0.00,VWS V15.00,2015-07-07 07:45:00,
2015-07-07 03:50:00,73.1,63.9,29.47,SW,225,4.7,6.7,73,0.00,,SKC,0.00,VWS V15.00,2015-07-07 07:50:00,
2015-07-07 03:55:00,73.2,64.0,29.47,South,180,4.0,9.6,73,0.00,,SKC,0.00,VWS V15.00,2015-07-07 07:55:00,
2015-07-07 04:00:00,73.3,64.1,29.47,WSW,245,2.7,8.2,73,0.00,,SKC,0.00,VWS V15.00,2015-07-07 08:00:00,
2015-07-07 04:05:00,73.2,64.0,29.46,SW,214,2.5,2.8,73,0.00,,SKC,0.00,VWS V15.00,2015-07-07 08:05:00,
2015-07-07 04:10:00,73.2,64.0,29.46,South,177,5.5,7.3,73,0.00,,SKC,0.00,VWS V15.00,2015-07-07 08:10:00,
2015-07-07 04:15:00,73.1,64.0,29.46,SSE,159,5.5,6.8,73,0.00,,SKC,0.00,VWS V15.00,2015-07-07 08:15:00,
2015-07-07 04:20:00,72.9,63.9,29.46,SSE,162,6.3,7.3,74,0.00,,SKC,0.00,VWS V15.00,2015-07-07 08:20:00,
2015-07-07 04:25:00,73.0,64.0,29.46,WSW,248,1.9,4.6,74,0.00,,SKC,0.00,VWS V15.00,2015-07-07 08:25:00,
2015-07-07 04:30:00,73.1,64.2,29.46,SSW,197,4.3,5.2,74,0.00,,SKC,0.00,VWS V15.00,2015-07-07 08:30:00,
2015-07-07 04:35:00,73.0,64.2,29.46,SSW,197,6.5,7.4,74,0.00,,SKC,0.00,VWS V15.00,2015-07-07 08:35:00,
2015-07-07 04:40:00,73.1,64.3,29.46,South,186,5.5,5.7,74,0.00,,SKC,0.00,VWS V15.00,2015-07-07 08:40:00,
2015-07-07 04:45:00,73.1,64.3,29.46,South,177,4.3,4.9,74,0.00,,SKC,0.00,VWS V15.00,2015-07-07 08:45:00,
2015-07-07 04:50:00,73.0,64.2,29.46,South,180,5.9,6.3,74,0.00,,SKC,0.00,VWS V15.00,2015-07-07 08:50:00,
2015-07-07 04:55:00,72.9,64.2,29.46,SSE,163,4.0,5.3,74,0.00,,SKC,0.00,VWS V15.00,2015-07-07 08:55:00,
2015-07-07 05:00:00,73.0,64.3,29.45,South,188,3.5,5.8,74,0.00,,SKC,0.00,VWS V15.00,2015-07-07 09:00:00,
2015-07-07 05:05:00,72.9,64.3,29.46,South,188,1.9,5.5,74,0.00,,SKC,0.00,VWS V15.00,2015-07-07 09:05:00,
2015-07-07 05:10:00,72.8,64.3,29.45,South,184,2.7,6.1,75,0.00,,SKC,0.00,VWS V15.00,2015-07-07 09:10:00,
2015-07-07 05:15:00,72.8,64.4,29.45,South,186,4.0,5.5,75,0.00,,SKC,0.00,VWS V15.00,2015-07-07 09:15:00,
2015-07-07 05:20:00,72.9,64.5,29.45,South,181,3.8,3.9,75,0.00,,SKC,0.00,VWS V15.00,2015-07-07 09:20:00,
2015-07-07 05:25:00,72.9,64.6,29.46,South,174,5.3,5.3,75,0.00,,SKC,0.00,VWS V15.00,2015-07-07 09:25:00,
2015-07-07 05:30:00,73.0,64.7,29.45,SSW,204,3.9,6.2,75,0.00,,SKC,0.00,VWS V15.00,2015-07-07 09:30:00,
2015-07-07 05:35:00,73.0,64.7,29.45,South,173,5.8,5.9,75,0.00,,SKC,0.00,VWS V15.00,2015-07-07 09:35:00,
2015-07-07 05:40:00,73.1,64.7,29.45,South,179,4.5,4.7,75,0.00,,SKC,0.00,VWS V15.00,2015-07-07 09:40:00,
2015-07-07 05:45:00,73.1,64.7,29.45,SSE,158,2.7,8.0,75,0.00,,SKC,0.00,VWS V15.00,2015-07-07 09:45:00,
2015-07-07 05:50:00,73.1,64.8,29.45,South,191,4.8,6.6,75,0.00,,SKC,0.00,VWS V15.00,2015-07-07 09:50:00,
2015-07-07 05:55:00,73.2,64.9,29.45,South,172,2.9,4.0,75,0.00,,SKC,0.00,VWS V15.00,2015-07-07 09:55:00,
2015-07-07 06:00:00,73.2,65.0,29.45,SSE,158,3.8,7.4,75,0.00,,SKC,0.00,VWS V15.00,2015-07-07 10:00:00,
2015-07-07 06:05:00,73.1,64.9,29.45,SSW,202,1.6,5.6,76,0.00,,SKC,0.00,VWS V15.00,2015-07-07 10:05:00,
2015-07-07 06:10:00,73.2,65.0,29.45,SSE,160,4.6,6.8,76,0.00,,SKC,0.00,VWS V15.00,2015-07-07 10:10:00,
2015-07-07 06:15:00,73.3,65.1,29.45,South,184,4.4,5.5,76,0.00,,SKC,0.00,VWS V15.00,2015-07-07 10:15:00,
2015-07-07 06:20:00,73.4,65.2,29.45,South,173,3.5,4.7,75,0.00,,SKC,0.00,VWS V15.00,2015-07-07 10:20:00,
2015-07-07 06:25:00,73.2,65.0,29.45,SSE,155,3.0,7.6,75,0.00,,SKC,0.00,VWS V15.00,2015-07-07 10:25:00,
2015-07-07 06:30:00,73.3,65.1,29.45,SSW,197,4.8,7.4,75,0.00,,SKC,0.00,VWS V15.00,2015-07-07 10:30:00,
2015-07-07 06:35:00,73.2,65.0,29.45,SSE,152,2.9,5.4,76,0.00,,SKC,0.00,VWS V15.00,2015-07-07 10:35:00,
2015-07-07 06:40:00,73.4,65.2,29.45,South,180,7.3,11.1,75,0.00,,SKC,0.00,VWS V15.00,2015-07-07 10:40:00,
2015-07-07 06:45:00,73.6,65.3,29.45,SW,219,8.3,8.6,75,0.00,,SKC,0.00,VWS V15.00,2015-07-07 10:45:00,
2015-07-07 06:50:00,73.9,65.5,29.45,WSW,252,3.7,5.9,75,0.00,,SKC,0.00,VWS V15.00,2015-07-07 10:50:00,
2015-07-07 06:55:00,74.0,65.6,29.45,South,169,3.3,7.4,75,0.00,,SKC,0.00,VWS V15.00,2015-07-07 10:55:00,
2015-07-07 07:00:00,74.2,65.6,29.45,SSW,212,6.6,6.8,75,0.00,,SKC,0.00,VWS V15.00,2015-07-07 11:00:00,
2015-07-07 07:05:00,74.4,65.7,29.45,South,190,6.0,6.0,74,0.00,,SKC,0.00,VWS V15.00,2015-07-07 11:05:00,
2015-07-07 07:10:00,74.3,65.7,29.45,WSW,240,2.0,6.6,74,0.00,,SKC,0.00,VWS V15.00,2015-07-07 11:10:00,
2015-07-07 07:15:00,74.3,65.8,29.45,WSW,239,3.9,5.4,75,0.00,,SKC,0.00,VWS V15.00,2015-07-07 11:15:00,
2015-07-07 07:20:00,74.8,66.2,29.45,SW,217,2.1,3.8,75,0.00,,SKC,0.00,VWS V15.00,2015-07-07 11:20:00,
2015-07-07 07:25:00,74.8,66.0,29.45,WSW,246,2.1,5.2,74,0.00,,SKC,0.00,VWS V15.00,2015-07-07 11:25:00,
2015-07-07 07:30:00,74.9,66.0,29.45,WSW,238,3.5,9.4,74,0.00,,SKC,0.00,VWS V15.00,2015-07-07 11:30:00,
2015-07-07 07:35:00,75.0,66.1,29.45,SW,218,2.7,7.1,74,0.00,,SKC,0.00,VWS V15.00,2015-07-07 11:35:00,
2015-07-07 07:40:00,74.8,65.8,29.45,SW,217,4.8,8.0,74,0.00,,SKC,0.00,VWS V15.00,2015-07-07 11:40:00,
2015-07-07 07:45:00,75.1,66.2,29.45,South,183,6.2,7.5,74,0.00,,SKC,0.00,VWS V15.00,2015-07-07 11:45:00,
2015-07-07 07:50:00,75.0,66.1,29.45,SSW,210,3.1,6.4,74,0.00,,SKC,0.00,VWS V15.00,2015-07-07 11:50:00,
2015-07-07 07:55:00,75.2,66.0,29.45,SSE,162,8.1,11.2,73,0.00,,SKC,0.00,VWS V15.00,2015-07-07 11:55:00,
2015-07-07 08:00:00,75.3,66.2,29.45,WSW,238,3.7,8.1,74,0.00,,SKC,0.00,VWS V15.00,2015-07-07 12:00:00,
2015-07-07 08:05:00,75.6,66.5,29.44,SSE,162,6.6,6.6,73,0.00,,SKC,0.00,VWS V15.00,2015-07-07 12:05:00,
2015-07-07 08:10:00,76.1,66.8,29.44,SSW,193,4.7,5.2,73,0.00,,SKC,0.00,VWS V15.00,2015-07-07 12:10:00,
2015-07-07 08:15:00,76.1,66.5,29.45,West,280,3.5,5.6,72,0.00,,SKC,0.00,VWS V15.00,2015-07-07 12:15:00,
2015-07-07 08:20:00,76.4,66.8,29.45,SW,224,2.2,5.2,72,0.00,,SKC,0.00,VWS V15.00,2015-07-07 12:20:00,
2015-07-07 08:25:00,76.2,66.4,29.45,SW,228,3.0,3.2,72,0.00,,SKC,0.00,VWS V15.00,2015-07-07 12:25:00,
2015-07-07 08:30:00,76.1,66.4,29.45,SSW,205,7.2,8.1,72,0.00,,SKC,0.00,VWS V15.00,2015-07-07 12:30:00,
2015-07-07 08:35:00,76.0,66.5,29.45,WSW,249,4.0,5.5,72,0.00,,SKC,0.00,VWS V15.00,2015-07-07 12:35:00,
2015-07-07 08:40:00,75.6,66.2,29.45,SSW,204,3.1,8.1,72,0.00,,SKC,0.00,VWS V15.00,2015-07-07 12:40:00,
2015-07-07 08:45:00,75.7,66.4,29.45,SW,224,2.7,5.5,73,0.00,,SKC,0.00,VWS V15.00,2015-07-07 12:45:00,
2015-07-07 08:50:00,75.5,66.4,29.45,SW,233,2.7,3.6,74,0.00,,SKC,0.00,VWS V15.00,2015-07-07 12:50:00,
2015-07-07 08:55:00,75.4,66.5,29.45,SW,232,2.5,2.8,74,0.00,,SKC,0.00,VWS V15.00,2015-07-07 12:55:00,
2015-07-07 09:00:00,75.2,66.6,29.45,WSW,249,2.4,3.2,74,0.00,,SKC,0.00,VWS V15.00,2015-07-07 13:00:00,
2015-07-07 09:05:00,75.2,66.7,29.45,South,188,2.8,3.3,75,0.00,,SKC,0.00,VWS V15.00,2015-07-07 13:05:00,
2015-07-07 09:15:00,74.7,67.0,29.45,WSW,238,2.1,3.9,77,0.00,,SKC,0.00,VWS V15.00,2015-07-07 13:15:00,
2015-07-07 09:20:00,74.3,67.3,29.45,SSW,207,6.0,8.1,79,0.00,,SKC,0.00,VWS V15.00,2015-07-07 13:20:00,
2015-07-07 09:25:00,73.8,67.4,29.45,West,259,4.7,4.7,80,0.00,,SKC,0.00,VWS V15.00,2015-07-07 13:25:00,
2015-07-07 09:30:00,73.3,67.6,29.45,South,177,2.5,3.1,82,0.00,,SKC,0.00,VWS V15.00,2015-07-07 13:30:00,
2015-07-07 09:35:00,72.9,67.6,29.45,SW,218,3.7,4.7,84,0.01,,SKC,0.01,VWS V15.00,2015-07-07 13:35:00,
2015-07-07 09:40:00,72.7,67.8,29.45,SW,214,1.6,2.7,85,0.01,,SKC,0.01,VWS V15.00,2015-07-07 13:40:00,
2015-07-07 09:45:00,72.7,68.2,29.45,South,174,6.2,9.9,86,0.02,,SKC,0.02,VWS V15.00,2015-07-07 13:45:00,
2015-07-07 09:50:00,72.7,68.3,29.44,SSW,207,3.3,3.4,86,0.02,,SKC,0.02,VWS V15.00,2015-07-07 13:50:00,
2015-07-07 09:55:00,72.6,68.4,29.44,SSE,156,7.1,8.5,87,0.02,,SKC,0.02,VWS V15.00,2015-07-07 13:55:00,
2015-07-07 10:00:00,72.7,68.5,29.44,SW,228,1.5,2.8,87,0.02,,SKC,0.02,VWS V15.00,2015-07-07 14:00:00,
2015-07-07 10:06:00,72.9,68.8,29.44,South,169,6.5,7.6,87,0.02,,SKC,0.02,VWS V15.00,2015-07-07 14:06:00,
2015-07-07 10:11:00,73.1,68.7,29.44,SSW,193,4.6,10.6,86,0.02,,SKC,0.02,VWS V15.00,2015-07-07 14:11:00,
2015-07-07 10:16:00,73.3,69.1,29.44,SW,221,1.8,2.7,87,0.02,,SKC,0.02,VWS V15.00,2015-07-07 14:16:00,
2015-07-07 10:21:00,73.3,68.9,29.44,SW,214,3.5,9.1,86,0.02,,SKC,0.02,VWS V15.00,2015-07-07 14:21:00,
2015-07-07 10:26:00,74.2,69.9,29.44,South,172,9.8,9.8,87,0.02,,SKC,0.02,VWS V15.00,2015-07-07 14:26:00,
2015-07-07 10:31:00,74.5,69.5,29.43,SW,225,3.2,5.5,84,0.02,,SKC,0.02,VWS V15.00,2015-07-07 14:31:00,
2015-07-07 10:36:00,74.9,69.9,29.43,SW,236,1.6,2.9,85,0.01,,SKC,0.02,VWS V15.00,2015-07-07 14:36:00,
2015-07-07 10:41:00,75.2,69.9,29.43,SSE,167,8.1,8.3,84,0.01,,SKC,0.02,VWS V15.00,2015-07-07 14:41:00,
2015-07-07 10:46:00,75.5,69.3,29.43,West,263,5.0,8.8,81,0.00,,SKC,0.02,VWS V15.00,2015-07-07 14:46:00,
2015-07-07 10:51:00,76.3,69.9,29.43,WSW,245,4.4,8.3,81,0.00,,SKC,0.02,VWS V15.00,2015-07-07 14:51:00,
2015-07-07 10:56:00,76.8,69.5,29.43,SW,218,3.7,9.3,78,0.00,,SKC,0.02,VWS V15.00,2015-07-07 14:56:00,
2015-07-07 11:01:00,77.3,69.7,29.43,WSW,249,4.0,8.4,77,0.00,,SKC,0.02,VWS V15.00,2015-07-07 15:01:00,
2015-07-07 11:11:00,78.2,70.1,29.42,South,174,8.0,8.5,76,0.00,,BKN,0.02,VWS V15.00,2015-07-07 15:11:00,
2015-07-07 11:16:00,78.5,69.4,29.42,WSW,256,6.5,7.4,74,0.00,,BKN,0.02,VWS V15.00,2015-07-07 15:16:00,
2015-07-07 11:21:00,78.4,69.2,29.42,WSW,252,3.5,7.6,73,0.00,,BKN,0.02,VWS V15.00,2015-07-07 15:21:00,
2015-07-07 11:26:00,78.7,69.6,29.42,SSW,210,2.4,3.2,74,0.00,,BKN,0.02,VWS V15.00,2015-07-07 15:26:00,
2015-07-07 11:31:00,78.8,69.6,29.42,South,176,3.9,4.7,73,0.00,,BKN,0.02,VWS V15.00,2015-07-07 15:31:00,
2015-07-07 11:36:00,79.0,69.5,29.41,SW,232,3.7,5.5,73,0.00,,BKN,0.02,VWS V15.00,2015-07-07 15:36:00,
2015-07-07 11:41:00,79.2,69.3,29.42,WSW,252,4.7,5.0,72,0.00,,BKN,0.02,VWS V15.00,2015-07-07 15:41:00,
2015-07-07 11:46:00,79.8,70.0,29.41,South,174,6.8,7.0,72,0.00,,BKN,0.02,VWS V15.00,2015-07-07 15:46:00,
2015-07-07 11:51:00,79.8,69.6,29.41,South,179,3.4,5.5,71,0.00,,BKN,0.02,VWS V15.00,2015-07-07 15:51:00,
2015-07-07 11:56:00,79.8,68.9,29.41,SSW,207,5.7,12.4,70,0.00,,BKN,0.02,VWS V15.00,2015-07-07 15:56:00,
2015-07-07 12:01:00,79.7,68.2,29.41,SSE,148,5.7,9.6,68,0.00,,BKN,0.02,VWS V15.00,2015-07-07 16:01:00,
2015-07-07 12:06:00,80.1,69.7,29.40,West,262,1.8,3.9,71,0.00,,BKN,0.02,VWS V15.00,2015-07-07 16:06:00,
2015-07-07 12:11:00,80.6,69.9,29.40,SSW,208,5.3,13.4,70,0.00,,BKN,0.02,VWS V15.00,2015-07-07 16:11:00,
2015-07-07 12:15:00,80.5,68.3,29.40,SSW,194,4.8,7.3,66,0.00,,BKN,0.02,VWS V15.00,2015-07-07 16:15:00,
2015-07-07 12:20:00,81.0,69.3,29.40,SSW,202,5.0,8.6,68,0.00,,BKN,0.02,VWS V15.00,2015-07-07 16:20:00,
2015-07-07 12:26:00,81.0,69.2,29.40,WSW,239,6.6,6.8,67,0.00,,BKN,0.02,VWS V15.00,2015-07-07 16:26:00,
2015-07-07 12:29:00,81.3,69.4,29.40,South,180,4.8,6.2,67,0.00,,BKN,0.02,VWS V15.00,2015-07-07 16:29:00,
2015-07-07 12:34:00,81.4,68.4,29.40,WSW,249,6.4,8.0,65,0.00,,BKN,0.02,VWS V15.00,2015-07-07 16:34:00,
2015-07-07 12:40:00,81.4,68.6,29.40,SW,232,4.4,6.5,65,0.00,,BKN,0.02,VWS V15.00,2015-07-07 16:40:00,
2015-07-07 12:45:00,81.4,69.5,29.40,SSW,193,3.4,3.5,67,0.00,,BKN,0.02,VWS V15.00,2015-07-07 16:45:00,
2015-07-07 12:50:00,81.6,67.9,29.39,SSW,197,6.6,13.7,63,0.00,,BKN,0.02,VWS V15.00,2015-07-07 16:50:00,
2015-07-07 12:55:00,81.5,68.5,29.39,SSW,204,4.0,8.6,65,0.00,,BKN,0.02,VWS V15.00,2015-07-07 16:55:00,
2015-07-07 12:56:00,81.4,68.9,29.39,WNW,283,4.9,4.9,66,0.00,,BKN,0.02,VWS V15.00,2015-07-07 16:56:00,
2015-07-07 13:01:00,82.0,69.3,29.38,WSW,245,4.0,4.0,65,0.00,,BKN,0.02,VWS V15.00,2015-07-07 17:01:00,
2015-07-07 13:07:00,82.3,68.8,29.38,SSW,212,3.0,6.0,64,0.00,,BKN,0.02,VWS V15.00,2015-07-07 17:07:00,
2015-07-07 13:12:00,82.2,68.3,29.38,SW,224,1.2,4.8,63,0.00,,BKN,0.02,VWS V15.00,2015-07-07 17:12:00,
2015-07-07 13:22:00,81.4,68.7,29.38,SW,231,4.2,6.3,65,0.00,,BKN,0.02,VWS V15.00,2015-07-07 17:22:00,
2015-07-07 13:28:00,82.0,68.0,29.37,SW,221,3.3,7.0,63,0.00,,BKN,0.02,VWS V15.00,2015-07-07 17:28:00,
2015-07-07 13:34:00,82.4,68.1,29.37,West,266,4.3,5.7,62,0.00,,BKN,0.02,VWS V15.00,2015-07-07 17:34:00,
2015-07-07 13:40:00,82.9,68.7,29.37,WSW,249,3.5,5.6,62,0.00,,BKN,0.02,VWS V15.00,2015-07-07 17:40:00,
2015-07-07 13:46:00,82.7,67.8,29.37,WSW,242,2.1,6.6,61,0.00,,BKN,0.02,VWS V15.00,2015-07-07 17:46:00,
2015-07-07 13:51:00,82.7,68.1,29.37,WSW,248,3.5,7.4,62,0.00,,BKN,0.02,VWS V15.00,2015-07-07 17:51:00,
2015-07-07 13:56:00,83.1,68.2,29.36,WSW,255,4.2,5.2,61,0.00,,BKN,0.02,VWS V15.00,2015-07-07 17:56:00,
2015-07-07 14:01:00,83.0,69.2,29.36,WSW,257,5.8,6.2,63,0.00,,BKN,0.02,VWS V15.00,2015-07-07 18:01:00,
2015-07-07 14:06:00,83.3,68.6,29.36,West,262,7.9,8.5,61,0.00,,BKN,0.02,VWS V15.00,2015-07-07 18:06:00,
2015-07-07 14:11:00,83.5,68.2,29.36,WSW,246,2.6,8.7,60,0.00,,BKN,0.02,VWS V15.00,2015-07-07 18:11:00,
2015-07-07 14:16:00,83.9,67.9,29.35,SSE,160,6.5,7.1,59,0.00,,BKN,0.02,VWS V15.00,2015-07-07 18:16:00,
2015-07-07 14:21:00,84.0,67.1,29.35,SW,236,3.8,6.0,57,0.00,,BKN,0.02,VWS V15.00,2015-07-07 18:21:00,
2015-07-07 14:26:00,83.5,66.1,29.35,SW,236,4.9,5.3,56,0.00,,BKN,0.02,VWS V15.00,2015-07-07 18:26:00,
2015-07-07 14:31:00,83.8,67.3,29.35,WSW,257,4.4,4.4,58,0.00,,BKN,0.02,VWS V15.00,2015-07-07 18:31:00,
2015-07-07 14:36:00,84.2,66.7,29.35,SSW,205,7.9,7.9,56,0.00,,BKN,0.02,VWS V15.00,2015-07-07 18:36:00,
2015-07-07 14:41:00,84.6,67.4,29.35,West,260,6.0,6.0,56,0.00,,BKN,0.02,VWS V15.00,2015-07-07 18:41:00,
2015-07-07 14:46:00,84.2,66.7,29.35,West,262,5.9,8.5,56,0.00,,BKN,0.02,VWS V15.00,2015-07-07 18:46:00,
2015-07-07 14:51:00,83.8,66.9,29.35,WSW,242,3.8,7.3,57,0.00,,BKN,0.02,VWS V15.00,2015-07-07 18:51:00,
2015-07-07 14:56:00,83.4,67.0,29.35,West,263,7.6,7.6,58,0.00,,BKN,0.02,VWS V15.00,2015-07-07 18:56:00,
2015-07-07 15:01:00,83.3,67.2,29.35,WSW,252,3.2,5.5,58,0.00,,BKN,0.02,VWS V15.00,2015-07-07 19:01:00,
2015-07-07 15:06:00,83.5,67.4,29.35,SSW,204,3.1,3.7,58,0.00,,BKN,0.02,VWS V15.00,2015-07-07 19:06:00,
2015-07-07 15:11:00,83.9,67.6,29.34,WSW,249,2.7,3.4,58,0.00,,BKN,0.02,VWS V15.00,2015-07-07 19:11:00,
2015-07-07 15:16:00,84.4,66.8,29.34,WSW,255,4.2,4.2,56,0.00,,BKN,0.02,VWS V15.00,2015-07-07 19:16:00,
2015-07-07 15:21:00,84.2,66.2,29.34,South,176,7.3,8.0,55,0.00,,BKN,0.02,VWS V15.00,2015-07-07 19:21:00,
2015-07-07 15:26:00,84.2,67.0,29.34,WSW,256,3.4,4.7,56,0.00,,BKN,0.02,VWS V15.00,2015-07-07 19:26:00,
2015-07-07 15:31:00,84.3,67.1,29.34,SSW,211,1.3,1.9,56,0.00,,BKN,0.02,VWS V15.00,2015-07-07 19:31:00,
2015-07-07 15:36:00,84.1,66.6,29.34,West,264,3.0,5.1,56,0.00,,BKN,0.02,VWS V15.00,2015-07-07 19:36:00,
2015-07-07 15:41:00,84.4,66.9,29.34,West,273,3.8,6.5,56,0.00,,BKN,0.02,VWS V15.00,2015-07-07 19:41:00,
2015-07-07 15:46:00,84.4,66.7,29.34,West,260,4.5,5.0,55,0.00,,BKN,0.02,VWS V15.00,2015-07-07 19:46:00,
2015-07-07 15:51:00,84.8,66.8,29.34,West,269,5.2,5.5,55,0.00,,BKN,0.02,VWS V15.00,2015-07-07 19:51:00,
2015-07-07 15:56:00,84.4,66.6,29.34,SW,217,11.9,12.4,55,0.00,,BKN,0.02,VWS V15.00,2015-07-07 19:56:00,
2015-07-07 16:01:00,84.6,67.0,29.34,West,276,2.8,4.6,56,0.00,,BKN,0.02,VWS V15.00,2015-07-07 20:01:00,
2015-07-07 16:06:00,84.4,66.6,29.34,SSW,198,6.3,6.5,55,0.00,,BKN,0.02,VWS V15.00,2015-07-07 20:06:00,
2015-07-07 16:12:00,84.4,67.1,29.34,SSW,194,3.5,4.2,56,0.00,,BKN,0.02,VWS V15.00,2015-07-07 20:12:00,
2015-07-07 16:17:00,84.4,66.0,29.34,West,266,6.2,6.9,54,0.00,,BKN,0.02,VWS V15.00,2015-07-07 20:17:00,
2015-07-07 16:22:00,84.5,66.5,29.34,West,273,3.5,6.0,55,0.00,,BKN,0.02,VWS V15.00,2015-07-07 20:22:00,
2015-07-07 16:27:00,84.4,66.5,29.34,West,271,4.5,6.9,55,0.00,,BKN,0.02,VWS V15.00,2015-07-07 20:27:00,
2015-07-07 16:32:00,84.9,68.1,29.34,WSW,245,6.2,7.1,57,0.00,,BKN,0.02,VWS V15.00,2015-07-07 20:32:00,